sensor_id;sensor_type;location;lat;lon;timestamp;pressure;altitude;pressure_sealevel;temperature;humidity
36834;BME280;48003;52.084;5.224;2023-01-29T00:01:31;103098.0;;;7.42;66.14
36834;BME280;48003;52.084;5.224;2023-01-29T00:03:08;103094.0;;;7.58;65.72
36834;BME280;48003;52.084;5.224;2023-01-29T00:04:45;103092.0;;;7.41;65.75
36834;BME280;48003;52.084;5.224;2023-01-29T00:08:00;103090.00000000001;;;7.84;64.84
36834;BME280;48003;52.084;5.224;2023-01-29T00:09:37;103086.99999999999;;;7.83;64.7
36834;BME280;48003;52.084;5.224;2023-01-29T00:11:15;103086.99999999999;;;7.74;64.83
36834;BME280;48003;52.084;5.224;2023-01-29T00:14:29;103080.0;;;7.6;65.35
36834;BME280;48003;52.084;5.224;2023-01-29T00:16:06;103072.0;;;7.3;66.03
36834;BME280;48003;52.084;5.224;2023-01-29T00:17:42;103072.0;;;7.27;66.16
36834;BME280;48003;52.084;5.224;2023-01-29T00:19:20;103065.00000000001;;;6.89;67.19
36834;BME280;48003;52.084;5.224;2023-01-29T00:22:34;103057.0;;;7.14;66.95
36834;BME280;48003;52.084;5.224;2023-01-29T00:24:10;103058.99999999999;;;7.67;65.37
36834;BME280;48003;52.084;5.224;2023-01-29T00:25:47;103057.0;;;7.61;65.27
36834;BME280;48003;52.084;5.224;2023-01-29T00:29:01;103055.0;;;7.61;65.45
36834;BME280;48003;52.084;5.224;2023-01-29T00:30:39;103055.0;;;7.67;65.27
36834;BME280;48003;52.084;5.224;2023-01-29T00:32:15;103057.0;;;7.52;65.85
36834;BME280;48003;52.084;5.224;2023-01-29T00:33:52;103061.99999999999;;;7.4;65.61
36834;BME280;48003;52.084;5.224;2023-01-29T00:37:07;103065.00000000001;;;7.51;66.0
36834;BME280;48003;52.084;5.224;2023-01-29T00:38:45;103065.00000000001;;;7.41;66.24
36834;BME280;48003;52.084;5.224;2023-01-29T00:40:22;103066.00000000001;;;7.56;65.69
36834;BME280;48003;52.084;5.224;2023-01-29T00:46:09;103052.0;;;7.21;66.35
36834;BME280;48003;52.084;5.224;2023-01-29T00:47:47;103063.00000000001;;;7.71;65.47
36834;BME280;48003;52.084;5.224;2023-01-29T00:49:24;103055.0;;;7.81;65.03
36834;BME280;48003;52.084;5.224;2023-01-29T00:51:01;103057.0;;;7.66;65.0
36834;BME280;48003;52.084;5.224;2023-01-29T00:52:40;103055.0;;;7.33;66.49
36834;BME280;48003;52.084;5.224;2023-01-29T00:55:54;103054.0;;;7.59;65.58
36834;BME280;48003;52.084;5.224;2023-01-29T00:57:32;103048.0;;;7.47;65.94
36834;BME280;48003;52.084;5.224;2023-01-29T00:59:10;103043.0;;;7.38;66.47
36834;BME280;48003;52.084;5.224;2023-01-29T01:03:29;103042.0;;;7.57;65.69
36834;BME280;48003;52.084;5.224;2023-01-29T01:05:08;103040.00000000001;;;7.36;66.48
36834;BME280;48003;52.084;5.224;2023-01-29T01:06:51;103045.0;;;7.41;66.47
36834;BME280;48003;52.084;5.224;2023-01-29T01:10:57;103041.00000000001;;;7.24;66.56
36834;BME280;48003;52.084;5.224;2023-01-29T01:12:34;103026.0;;;7.55;65.78
36834;BME280;48003;52.084;5.224;2023-01-29T01:14:10;103030.0;;;7.54;65.72
36834;BME280;48003;52.084;5.224;2023-01-29T01:15:48;103027.0;;;7.32;66.44
36834;BME280;48003;52.084;5.224;2023-01-29T01:19:01;103026.0;;;7.15;66.8
36834;BME280;48003;52.084;5.224;2023-01-29T01:20:39;103026.0;;;7.53;66.22
36834;BME280;48003;52.084;5.224;2023-01-29T01:22:16;103019.0;;;7.63;65.97
36834;BME280;48003;52.084;5.224;2023-01-29T01:25:29;103020.0;;;7.6;65.73
36834;BME280;48003;52.084;5.224;2023-01-29T01:27:06;103022.0;;;7.34;66.72
36834;BME280;48003;52.084;5.224;2023-01-29T01:28:43;103019.0;;;7.5;66.34
36834;BME280;48003;52.084;5.224;2023-01-29T01:30:20;103030.0;;;7.59;65.91
36834;BME280;48003;52.084;5.224;2023-01-29T01:33:36;103027.0;;;7.46;66.42
36834;BME280;48003;52.084;5.224;2023-01-29T01:35:14;103023.0;;;7.19;66.81
36834;BME280;48003;52.084;5.224;2023-01-29T01:36:51;103028.0;;;7.25;67.3
36834;BME280;48003;52.084;5.224;2023-01-29T01:40:16;103039.00000000001;;;7.37;66.94
36834;BME280;48003;52.084;5.224;2023-01-29T01:41:53;103041.00000000001;;;7.44;66.38
36834;BME280;48003;52.084;5.224;2023-01-29T01:43:46;103038.00000000001;;;7.62;65.77
36834;BME280;48003;52.084;5.224;2023-01-29T01:45:26;103040.00000000001;;;7.67;65.53
36834;BME280;48003;52.084;5.224;2023-01-29T01:47:04;103036.99999999999;;;7.66;65.41
36834;BME280;48003;52.084;5.224;2023-01-29T01:50:23;103032.0;;;7.56;65.47
36834;BME280;48003;52.084;5.224;2023-01-29T01:52:03;103034.99999999999;;;7.12;66.77
36834;BME280;48003;52.084;5.224;2023-01-29T01:53:43;103040.00000000001;;;7.41;66.0
36834;BME280;48003;52.084;5.224;2023-01-29T01:57:11;103042.0;;;7.53;65.38
36834;BME280;48003;52.084;5.224;2023-01-29T01:58:53;103039.00000000001;;;7.26;66.47
36834;BME280;48003;52.084;5.224;2023-01-29T02:00:32;103040.00000000001;;;7.3;66.37
36834;BME280;48003;52.084;5.224;2023-01-29T02:10:31;103038.00000000001;;;7.02;67.58
36834;BME280;48003;52.084;5.224;2023-01-29T02:12:13;103041.00000000001;;;6.87;67.81
36834;BME280;48003;52.084;5.224;2023-01-29T02:15:29;103041.00000000001;;;7.42;66.62
36834;BME280;48003;52.084;5.224;2023-01-29T02:17:08;103036.99999999999;;;7.15;67.25
36834;BME280;48003;52.084;5.224;2023-01-29T02:18:47;103033.0;;;6.91;67.58
36834;BME280;48003;52.084;5.224;2023-01-29T02:22:15;103038.00000000001;;;7.35;66.55
36834;BME280;48003;52.084;5.224;2023-01-29T02:24:10;103036.99999999999;;;6.95;67.11
36834;BME280;48003;52.084;5.224;2023-01-29T02:26:28;103030.0;;;7.06;67.44
36834;BME280;48003;52.084;5.224;2023-01-29T02:28:26;103028.0;;;7.22;66.44
36834;BME280;48003;52.084;5.224;2023-01-29T02:30:16;103027.0;;;7.11;66.99
36834;BME280;48003;52.084;5.224;2023-01-29T02:32:10;103030.0;;;7.02;67.56
36834;BME280;48003;52.084;5.224;2023-01-29T02:34:05;103026.0;;;6.92;67.48
36834;BME280;48003;52.084;5.224;2023-01-29T02:35:53;103036.99999999999;;;7.38;66.58
36834;BME280;48003;52.084;5.224;2023-01-29T02:37:38;103033.99999999999;;;7.22;66.77
36834;BME280;48003;52.084;5.224;2023-01-29T02:41:12;103041.00000000001;;;7.29;66.85
36834;BME280;48003;52.084;5.224;2023-01-29T02:42:56;103045.0;;;7.52;66.03
36834;BME280;48003;52.084;5.224;2023-01-29T02:44:39;103045.0;;;7.52;65.72
36834;BME280;48003;52.084;5.224;2023-01-29T02:46:22;103044.0;;;7.45;65.83
36834;BME280;48003;52.084;5.224;2023-01-29T02:48:04;103046.0;;;7.51;66.08
36834;BME280;48003;52.084;5.224;2023-01-29T02:51:30;103044.0;;;7.45;65.86
36834;BME280;48003;52.084;5.224;2023-01-29T02:53:14;103044.0;;;7.46;65.98
36834;BME280;48003;52.084;5.224;2023-01-29T02:54:55;103045.0;;;7.45;65.83
36834;BME280;48003;52.084;5.224;2023-01-29T02:56:39;103046.0;;;7.39;66.06
36834;BME280;48003;52.084;5.224;2023-01-29T02:58:26;103046.0;;;7.18;66.6
36834;BME280;48003;52.084;5.224;2023-01-29T03:01:52;103045.0;;;7.13;66.85
36834;BME280;48003;52.084;5.224;2023-01-29T03:03:35;103045.0;;;6.92;67.69
36834;BME280;48003;52.084;5.224;2023-01-29T03:05:20;103048.0;;;7.48;66.11
36834;BME280;48003;52.084;5.224;2023-01-29T03:07:04;103043.0;;;7.5;65.97
36834;BME280;48003;52.084;5.224;2023-01-29T03:08:48;103040.00000000001;;;7.52;65.94
36834;BME280;48003;52.084;5.224;2023-01-29T03:12:21;103038.00000000001;;;7.55;65.72
36834;BME280;48003;52.084;5.224;2023-01-29T03:14:12;103041.00000000001;;;7.63;65.66
36834;BME280;48003;52.084;5.224;2023-01-29T03:15:59;103031.0;;;6.77;67.6
36834;BME280;48003;52.084;5.224;2023-01-29T03:17:41;103027.0;;;7.3;66.74
36834;BME280;48003;52.084;5.224;2023-01-29T03:19:26;103023.0;;;7.54;66.06
36834;BME280;48003;52.084;5.224;2023-01-29T03:21:54;103022.0;;;7.49;66.25
36834;BME280;48003;52.084;5.224;2023-01-29T03:32:15;103020.0;;;7.67;66.14
36834;BME280;48003;52.084;5.224;2023-01-29T03:33:59;103017.0;;;7.39;67.08
36834;BME280;48003;52.084;5.224;2023-01-29T03:37:35;103003.0;;;7.48;66.73
36834;BME280;48003;52.084;5.224;2023-01-29T03:39:16;102994.0;;;6.86;68.36
36834;BME280;48003;52.084;5.224;2023-01-29T03:40:56;102994.0;;;6.52;69.94
36834;BME280;48003;52.084;5.224;2023-01-29T03:42:43;102988.00000000001;;;6.89;69.37
36834;BME280;48003;52.084;5.224;2023-01-29T03:44:31;102991.00000000001;;;7.23;68.14
36834;BME280;48003;52.084;5.224;2023-01-29T03:48:07;102992.0;;;7.41;67.64
36834;BME280;48003;52.084;5.224;2023-01-29T03:49:55;102993.0;;;7.02;68.2
36834;BME280;48003;52.084;5.224;2023-01-29T03:51:37;102992.0;;;7.36;67.77
36834;BME280;48003;52.084;5.224;2023-01-29T03:53:24;102988.00000000001;;;7.27;68.16
36834;BME280;48003;52.084;5.224;2023-01-29T03:55:11;102984.99999999999;;;6.85;69.39
36834;BME280;48003;52.084;5.224;2023-01-29T03:56:56;102988.00000000001;;;7.27;68.19
36834;BME280;48003;52.084;5.224;2023-01-29T04:00:25;102992.0;;;7.17;68.44
36834;BME280;48003;52.084;5.224;2023-01-29T04:02:05;102982.0;;;6.93;69.11
36834;BME280;48003;52.084;5.224;2023-01-29T04:03:49;102983.0;;;7.12;68.66
36834;BME280;48003;52.084;5.224;2023-01-29T04:05:35;102974.0;;;6.52;70.42
36834;BME280;48003;52.084;5.224;2023-01-29T04:07:16;102983.0;;;7.03;69.09
36834;BME280;48003;52.084;5.224;2023-01-29T04:10:40;102980.0;;;7.16;68.48
36834;BME280;48003;52.084;5.224;2023-01-29T04:12:23;102967.0;;;7.26;68.03
36834;BME280;48003;52.084;5.224;2023-01-29T04:14:03;102968.0;;;7.01;68.94
36834;BME280;48003;52.084;5.224;2023-01-29T04:15:45;102970.0;;;7.07;68.66
36834;BME280;48003;52.084;5.224;2023-01-29T04:19:10;102958.99999999999;;;6.89;69.06
36834;BME280;48003;52.084;5.224;2023-01-29T04:20:48;102965.00000000001;;;6.52;70.11
36834;BME280;48003;52.084;5.224;2023-01-29T04:22:29;102967.0;;;7.05;68.44
36834;BME280;48003;52.084;5.224;2023-01-29T04:24:08;102964.00000000001;;;6.56;69.3
36834;BME280;48003;52.084;5.224;2023-01-29T04:27:46;102964.00000000001;;;6.65;69.52
36834;BME280;48003;52.084;5.224;2023-01-29T04:29:39;102968.0;;;6.91;68.36
36834;BME280;48003;52.084;5.224;2023-01-29T04:31:25;102965.00000000001;;;6.5;69.8
36834;BME280;48003;52.084;5.224;2023-01-29T04:33:10;102965.00000000001;;;6.73;69.36
36834;BME280;48003;52.084;5.224;2023-01-29T04:34:59;102961.99999999999;;;6.35;70.3
36834;BME280;48003;52.084;5.224;2023-01-29T04:36:46;102955.0;;;6.16;70.97
36834;BME280;48003;52.084;5.224;2023-01-29T04:40:25;102950.0;;;6.47;70.45
36834;BME280;48003;52.084;5.224;2023-01-29T04:42:13;102950.0;;;6.9;68.98
36834;BME280;48003;52.084;5.224;2023-01-29T04:43:59;102949.0;;;6.95;68.37
36834;BME280;48003;52.084;5.224;2023-01-29T04:45:44;102955.0;;;6.66;69.27
36834;BME280;48003;52.084;5.224;2023-01-29T04:47:35;102945.0;;;6.92;68.45
36834;BME280;48003;52.084;5.224;2023-01-29T04:49:26;102948.0;;;6.93;68.38
36834;BME280;48003;52.084;5.224;2023-01-29T04:52:57;102947.0;;;6.88;68.38
36834;BME280;48003;52.084;5.224;2023-01-29T04:54:49;102945.0;;;6.91;67.89
36834;BME280;48003;52.084;5.224;2023-01-29T04:57:18;102941.00000000001;;;6.77;68.13
36834;BME280;48003;52.084;5.224;2023-01-29T04:59:01;102934.99999999999;;;6.48;69.55
36834;BME280;48003;52.084;5.224;2023-01-29T05:00:42;102936.99999999999;;;6.38;69.52
36834;BME280;48003;52.084;5.224;2023-01-29T05:02:23;102930.0;;;6.8;68.52
36834;BME280;48003;52.084;5.224;2023-01-29T05:04:05;102927.0;;;6.92;68.0
36834;BME280;48003;52.084;5.224;2023-01-29T05:07:25;102926.0;;;7.06;67.16
36834;BME280;48003;52.084;5.224;2023-01-29T05:09:05;102920.0;;;6.75;67.67
36834;BME280;48003;52.084;5.224;2023-01-29T05:10:43;102928.0;;;7.07;67.25
36834;BME280;48003;52.084;5.224;2023-01-29T05:12:24;102928.0;;;6.38;68.62
36834;BME280;48003;52.084;5.224;2023-01-29T05:15:45;102927.0;;;6.77;67.61
36834;BME280;48003;52.084;5.224;2023-01-29T05:17:24;102926.0;;;6.63;68.19
36834;BME280;48003;52.084;5.224;2023-01-29T05:19:02;102924.0;;;6.64;67.75
36834;BME280;48003;52.084;5.224;2023-01-29T05:20:41;102925.0;;;6.69;67.59
36834;BME280;48003;52.084;5.224;2023-01-29T05:24:09;102930.0;;;6.68;67.6
36834;BME280;48003;52.084;5.224;2023-01-29T05:25:46;102933.99999999999;;;6.86;66.97
36834;BME280;48003;52.084;5.224;2023-01-29T05:28:29;102934.99999999999;;;6.25;68.19
36834;BME280;48003;52.084;5.224;2023-01-29T05:30:08;102938.00000000001;;;6.28;68.38
36834;BME280;48003;52.084;5.224;2023-01-29T05:31:45;102933.99999999999;;;6.38;67.97
36834;BME280;48003;52.084;5.224;2023-01-29T05:33:23;102926.0;;;6.02;68.77
36834;BME280;48003;52.084;5.224;2023-01-29T05:36:39;102932.0;;;6.34;68.25
36834;BME280;48003;52.084;5.224;2023-01-29T05:38:17;102928.0;;;5.66;70.22
36834;BME280;48003;52.084;5.224;2023-01-29T05:39:54;102926.0;;;5.61;70.44
36834;BME280;48003;52.084;5.224;2023-01-29T05:41:32;102922.0;;;6.02;68.91
36834;BME280;48003;52.084;5.224;2023-01-29T05:44:52;102923.0;;;6.06;69.3
36834;BME280;48003;52.084;5.224;2023-01-29T05:46:28;102919.0;;;5.94;69.47
36834;BME280;48003;52.084;5.224;2023-01-29T05:48:05;102926.0;;;6.34;68.38
36834;BME280;48003;52.084;5.224;2023-01-29T05:51:19;102925.0;;;6.62;67.14
36834;BME280;48003;52.084;5.224;2023-01-29T05:52:56;102931.0;;;6.51;67.16
36834;BME280;48003;52.084;5.224;2023-01-29T05:54:32;102933.0;;;6.67;66.91
36834;BME280;48003;52.084;5.224;2023-01-29T05:56:09;102931.0;;;6.07;68.49
36834;BME280;48003;52.084;5.224;2023-01-29T05:59:22;102932.0;;;6.08;68.97
36834;BME280;48003;52.084;5.224;2023-01-29T06:01:07;102926.0;;;6.33;68.1
36834;BME280;48003;52.084;5.224;2023-01-29T06:02:45;102922.0;;;6.36;68.05
36834;BME280;48003;52.084;5.224;2023-01-29T06:04:21;102916.00000000001;;;6.67;67.14
36834;BME280;48003;52.084;5.224;2023-01-29T06:07:34;102908.99999999999;;;6.61;67.55
36834;BME280;48003;52.084;5.224;2023-01-29T06:09:11;102905.0;;;6.88;66.3
36834;BME280;48003;52.084;5.224;2023-01-29T06:10:48;102909.99999999999;;;6.61;67.24
36834;BME280;48003;52.084;5.224;2023-01-29T06:14:02;102903.0;;;6.19;68.44
36834;BME280;48003;52.084;5.224;2023-01-29T06:15:40;102900.0;;;6.08;69.11
36834;BME280;48003;52.084;5.224;2023-01-29T06:20:31;102893.0;;;6.25;68.06
36834;BME280;48003;52.084;5.224;2023-01-29T06:22:08;102895.0;;;6.71;67.31
36834;BME280;48003;52.084;5.224;2023-01-29T06:23:45;102895.0;;;5.88;69.17
36834;BME280;48003;52.084;5.224;2023-01-29T06:25:22;102890.00000000001;;;6.4;68.05
36834;BME280;48003;52.084;5.224;2023-01-29T06:28:34;102893.0;;;5.84;69.59
36834;BME280;48003;52.084;5.224;2023-01-29T06:30:12;102892.0;;;5.94;69.3
36834;BME280;48003;52.084;5.224;2023-01-29T06:31:48;102883.99999999999;;;5.85;69.7
36834;BME280;48003;52.084;5.224;2023-01-29T06:35:02;102881.0;;;6.21;68.22
36834;BME280;48003;52.084;5.224;2023-01-29T06:36:41;102882.0;;;6.44;67.48
36834;BME280;48003;52.084;5.224;2023-01-29T06:38:17;102875.0;;;6.3;67.31
36834;BME280;48003;52.084;5.224;2023-01-29T06:41:30;102883.0;;;5.77;68.94
36834;BME280;48003;52.084;5.224;2023-01-29T06:43:06;102883.0;;;6.15;68.22
36834;BME280;48003;52.084;5.224;2023-01-29T06:44:43;102882.0;;;6.07;68.14
36834;BME280;48003;52.084;5.224;2023-01-29T06:46:20;102881.0;;;6.07;68.16
36834;BME280;48003;52.084;5.224;2023-01-29T06:49:33;102880.0;;;6.05;68.66
36834;BME280;48003;52.084;5.224;2023-01-29T06:51:10;102884.99999999999;;;6.05;68.44
36834;BME280;48003;52.084;5.224;2023-01-29T06:52:47;102886.99999999999;;;6.22;68.05
36834;BME280;48003;52.084;5.224;2023-01-29T06:55:59;102891.00000000001;;;6.65;66.53
36834;BME280;48003;52.084;5.224;2023-01-29T06:57:36;102891.00000000001;;;6.06;67.63
36834;BME280;48003;52.084;5.224;2023-01-29T06:59:14;102890.00000000001;;;5.89;68.59
36834;BME280;48003;52.084;5.224;2023-01-29T07:00:51;102889.00000000001;;;5.97;68.94
36834;BME280;48003;52.084;5.224;2023-01-29T07:04:04;102888.00000000001;;;5.82;68.91
36834;BME280;48003;52.084;5.224;2023-01-29T07:05:41;102888.00000000001;;;5.98;68.87
36834;BME280;48003;52.084;5.224;2023-01-29T07:07:18;102889.00000000001;;;6.13;68.45
36834;BME280;48003;52.084;5.224;2023-01-29T07:10:31;102888.00000000001;;;6.14;68.14
36834;BME280;48003;52.084;5.224;2023-01-29T07:12:08;102883.0;;;6.07;67.86
36834;BME280;48003;52.084;5.224;2023-01-29T07:13:45;102881.0;;;6.21;67.61
36834;BME280;48003;52.084;5.224;2023-01-29T07:16:58;102873.0;;;5.92;69.28
36834;BME280;48003;52.084;5.224;2023-01-29T07:18:36;102878.0;;;5.57;70.98
36834;BME280;48003;52.084;5.224;2023-01-29T07:20:12;102869.0;;;6.03;70.08
36834;BME280;48003;52.084;5.224;2023-01-29T07:21:48;102880.0;;;6.36;69.37
36834;BME280;48003;52.084;5.224;2023-01-29T07:25:01;102886.99999999999;;;5.92;70.33
36834;BME280;48003;52.084;5.224;2023-01-29T07:26:39;102883.0;;;5.96;69.83
36834;BME280;48003;52.084;5.224;2023-01-29T07:28:15;102884.99999999999;;;5.55;71.36
36834;BME280;48003;52.084;5.224;2023-01-29T07:31:29;102883.0;;;6.12;69.86
36834;BME280;48003;52.084;5.224;2023-01-29T07:33:08;102884.99999999999;;;6.03;69.36
36834;BME280;48003;52.084;5.224;2023-01-29T07:34:45;102880.0;;;5.94;69.62
36834;BME280;48003;52.084;5.224;2023-01-29T07:37:59;102879.0;;;6.0;69.13
36834;BME280;48003;52.084;5.224;2023-01-29T07:39:36;102881.0;;;5.99;69.86
36834;BME280;48003;52.084;5.224;2023-01-29T07:41:12;102877.0;;;6.06;69.28
36834;BME280;48003;52.084;5.224;2023-01-29T07:42:49;102884.99999999999;;;6.47;67.61
36834;BME280;48003;52.084;5.224;2023-01-29T07:46:02;102889.00000000001;;;6.11;68.75
36834;BME280;48003;52.084;5.224;2023-01-29T07:47:39;102883.0;;;6.18;68.53
36834;BME280;48003;52.084;5.224;2023-01-29T07:49:15;102872.0;;;5.99;68.42
36834;BME280;48003;52.084;5.224;2023-01-29T07:52:32;102867.0;;;5.95;68.94
36834;BME280;48003;52.084;5.224;2023-01-29T07:54:09;102872.0;;;5.95;69.05
36834;BME280;48003;52.084;5.224;2023-01-29T07:55:45;102867.0;;;6.23;67.91
36834;BME280;48003;52.084;5.224;2023-01-29T07:57:22;102861.99999999999;;;6.48;67.08
36834;BME280;48003;52.084;5.224;2023-01-29T08:00:36;102857.0;;;5.82;68.45
36834;BME280;48003;52.084;5.224;2023-01-29T08:02:13;102851.0;;;5.81;69.44
36834;BME280;48003;52.084;5.224;2023-01-29T08:03:50;102853.0;;;6.06;68.41
36834;BME280;48003;52.084;5.224;2023-01-29T08:07:05;102850.0;;;5.63;69.38
36834;BME280;48003;52.084;5.224;2023-01-29T08:08:42;102848.0;;;5.57;69.75
36834;BME280;48003;52.084;5.224;2023-01-29T08:10:19;102845.0;;;5.85;69.3
36834;BME280;48003;52.084;5.224;2023-01-29T08:13:33;102846.0;;;6.23;68.02
36834;BME280;48003;52.084;5.224;2023-01-29T08:15:10;102842.0;;;6.38;67.42
36834;BME280;48003;52.084;5.224;2023-01-29T08:16:48;102833.99999999999;;;5.77;68.62
36834;BME280;48003;52.084;5.224;2023-01-29T08:18:24;102833.99999999999;;;5.98;68.72
36834;BME280;48003;52.084;5.224;2023-01-29T08:21:39;102838.00000000001;;;6.27;67.73
36834;BME280;48003;52.084;5.224;2023-01-29T08:23:15;102839.00000000001;;;6.19;68.05
36834;BME280;48003;52.084;5.224;2023-01-29T08:24:52;102834.99999999999;;;5.99;68.73
36834;BME280;48003;52.084;5.224;2023-01-29T08:28:05;102838.00000000001;;;6.1;67.53
36834;BME280;48003;52.084;5.224;2023-01-29T08:29:42;102841.00000000001;;;6.07;68.17
36834;BME280;48003;52.084;5.224;2023-01-29T08:31:19;102833.99999999999;;;5.98;68.13
36834;BME280;48003;52.084;5.224;2023-01-29T08:32:56;102841.00000000001;;;6.1;68.33
36834;BME280;48003;52.084;5.224;2023-01-29T08:36:10;102833.99999999999;;;5.77;69.03
36834;BME280;48003;52.084;5.224;2023-01-29T08:37:55;102843.0;;;6.17;68.08
36834;BME280;48003;52.084;5.224;2023-01-29T08:39:32;102836.99999999999;;;6.2;67.58
36834;BME280;48003;52.084;5.224;2023-01-29T08:42:44;102833.0;;;6.32;67.06
36834;BME280;48003;52.084;5.224;2023-01-29T08:44:21;102830.0;;;6.25;67.72
36834;BME280;48003;52.084;5.224;2023-01-29T08:45:58;102831.0;;;6.1;67.8
36834;BME280;48003;52.084;5.224;2023-01-29T08:47:35;102821.0;;;5.92;68.69
36834;BME280;48003;52.084;5.224;2023-01-29T08:50:48;102819.0;;;6.03;68.31
36834;BME280;48003;52.084;5.224;2023-01-29T08:52:24;102824.0;;;6.14;67.78
36834;BME280;48003;52.084;5.224;2023-01-29T08:54:00;102817.0;;;6.0;68.23
36834;BME280;48003;52.084;5.224;2023-01-29T08:57:15;102814.00000000001;;;5.99;68.33
36834;BME280;48003;52.084;5.224;2023-01-29T08:58:52;102814.00000000001;;;6.15;67.98
36834;BME280;48003;52.084;5.224;2023-01-29T09:00:29;102813.00000000001;;;6.17;67.91
36834;BME280;48003;52.084;5.224;2023-01-29T09:03:43;102814.00000000001;;;6.14;67.37
36834;BME280;48003;52.084;5.224;2023-01-29T09:05:19;102818.0;;;6.21;67.91
36834;BME280;48003;52.084;5.224;2023-01-29T09:06:57;102815.00000000001;;;6.27;67.66
36834;BME280;48003;52.084;5.224;2023-01-29T09:08:34;102820.0;;;6.4;67.52
36834;BME280;48003;52.084;5.224;2023-01-29T09:11:48;102808.99999999999;;;6.73;65.97
36834;BME280;48003;52.084;5.224;2023-01-29T09:13:24;102815.00000000001;;;6.51;66.86
36834;BME280;48003;52.084;5.224;2023-01-29T09:15:01;102817.0;;;6.2;67.49
36834;BME280;48003;52.084;5.224;2023-01-29T09:18:15;102808.0;;;5.92;68.69
36834;BME280;48003;52.084;5.224;2023-01-29T09:19:53;102822.0;;;6.21;67.55
36834;BME280;48003;52.084;5.224;2023-01-29T09:21:30;102819.0;;;6.07;67.97
36834;BME280;48003;52.084;5.224;2023-01-29T09:23:07;102809.99999999999;;;6.19;68.2
36834;BME280;48003;52.084;5.224;2023-01-29T09:26:21;102805.0;;;6.73;66.39
36834;BME280;48003;52.084;5.224;2023-01-29T09:27:58;102808.99999999999;;;6.81;65.88
36834;BME280;48003;52.084;5.224;2023-01-29T09:29:36;102815.00000000001;;;6.63;66.48
36834;BME280;48003;52.084;5.224;2023-01-29T09:32:49;102813.00000000001;;;6.61;66.11
36834;BME280;48003;52.084;5.224;2023-01-29T09:34:26;102816.00000000001;;;6.42;66.85
36834;BME280;48003;52.084;5.224;2023-01-29T09:36:03;102813.00000000001;;;6.55;66.27
36834;BME280;48003;52.084;5.224;2023-01-29T09:39:16;102811.99999999999;;;6.84;65.85
36834;BME280;48003;52.084;5.224;2023-01-29T09:40:58;102806.0;;;6.83;65.83
36834;BME280;48003;52.084;5.224;2023-01-29T09:42:43;102819.0;;;6.25;67.14
36834;BME280;48003;52.084;5.224;2023-01-29T09:44:37;102819.0;;;6.45;66.55
36834;BME280;48003;52.084;5.224;2023-01-29T09:46:32;102818.0;;;6.28;66.97
36834;BME280;48003;52.084;5.224;2023-01-29T09:48:13;102816.00000000001;;;6.02;68.03
36834;BME280;48003;52.084;5.224;2023-01-29T09:51:36;102817.0;;;6.12;67.92
36834;BME280;48003;52.084;5.224;2023-01-29T09:53:18;102816.00000000001;;;6.51;66.94
36834;BME280;48003;52.084;5.224;2023-01-29T09:55:02;102817.0;;;6.5;66.85
36834;BME280;48003;52.084;5.224;2023-01-29T09:56:44;102814.00000000001;;;6.71;66.08
36834;BME280;48003;52.084;5.224;2023-01-29T10:00:05;102813.00000000001;;;6.22;67.38
36834;BME280;48003;52.084;5.224;2023-01-29T10:01:48;102808.99999999999;;;6.27;67.52
36834;BME280;48003;52.084;5.224;2023-01-29T10:03:44;102804.0;;;6.67;66.58
36834;BME280;48003;52.084;5.224;2023-01-29T10:07:40;102802.0;;;6.79;66.33
36834;BME280;48003;52.084;5.224;2023-01-29T10:10:03;102803.0;;;6.79;65.91
36834;BME280;48003;52.084;5.224;2023-01-29T10:12:00;102808.99999999999;;;6.54;66.5
36834;BME280;48003;52.084;5.224;2023-01-29T10:13:51;102805.0;;;6.65;66.37
36834;BME280;48003;52.084;5.224;2023-01-29T10:15:47;102799.0;;;6.79;66.05
36834;BME280;48003;52.084;5.224;2023-01-29T10:23:05;102800.0;;;6.63;66.36
36834;BME280;48003;52.084;5.224;2023-01-29T10:24:56;102806.0;;;6.31;67.63
36834;BME280;48003;52.084;5.224;2023-01-29T10:26:37;102800.0;;;6.41;67.02
36834;BME280;48003;52.084;5.224;2023-01-29T10:28:17;102799.0;;;6.4;67.61
36834;BME280;48003;52.084;5.224;2023-01-29T10:31:36;102782.0;;;6.85;65.88
36834;BME280;48003;52.084;5.224;2023-01-29T10:33:22;102786.99999999999;;;6.75;66.11
36834;BME280;48003;52.084;5.224;2023-01-29T10:35:15;102786.99999999999;;;6.37;67.11
36834;BME280;48003;52.084;5.224;2023-01-29T10:36:58;102782.0;;;6.34;67.34
36834;BME280;48003;52.084;5.224;2023-01-29T10:38:41;102778.0;;;6.54;67.22
36834;BME280;48003;52.084;5.224;2023-01-29T10:42:05;102775.0;;;6.47;67.38
36834;BME280;48003;52.084;5.224;2023-01-29T10:44:04;102779.0;;;6.71;66.22
36834;BME280;48003;52.084;5.224;2023-01-29T10:45:52;102773.0;;;6.65;67.0
36834;BME280;48003;52.084;5.224;2023-01-29T10:48:34;102758.0;;;6.8;66.23
36834;BME280;48003;52.084;5.224;2023-01-29T10:50:31;102766.00000000001;;;6.36;67.41
36834;BME280;48003;52.084;5.224;2023-01-29T10:52:32;102757.0;;;6.53;66.95
36834;BME280;48003;52.084;5.224;2023-01-29T10:54:26;102747.0;;;6.59;67.19
36834;BME280;48003;52.084;5.224;2023-01-29T10:56:23;102744.0;;;6.67;67.03
36834;BME280;48003;52.084;5.224;2023-01-29T10:58:13;102742.0;;;6.7;66.87
36834;BME280;48003;52.084;5.224;2023-01-29T11:00:03;102746.0;;;6.5;67.52
36834;BME280;48003;52.084;5.224;2023-01-29T11:01:44;102734.99999999999;;;6.57;67.5
36834;BME280;48003;52.084;5.224;2023-01-29T11:05:00;102721.0;;;6.75;66.75
36834;BME280;48003;52.084;5.224;2023-01-29T11:06:37;102725.0;;;6.63;67.3
36834;BME280;48003;52.084;5.224;2023-01-29T11:08:17;102721.0;;;6.66;67.19
36834;BME280;48003;52.084;5.224;2023-01-29T11:10:00;102723.0;;;6.56;67.66
36834;BME280;48003;52.084;5.224;2023-01-29T11:13:21;102715.00000000001;;;6.74;67.38